Time,TemperatureF,DewpointF,PressureIn,WindDirection,WindDirectionDegrees,WindSpeedMPH,WindSpeedGustMPH,Humidity,HourlyPrecipIn,Conditions,Clouds,dailyrainin,SolarRadiationWatts/m^2,SoftwareType,DateUTC
2013-04-20 00:01:00,40.0,40.0,-100.00,NE,43,2.0,13.0,100,0.01,,,-99.99,0.000000,,2013-04-20 07:01:00,
2013-04-20 00:32:00,40.0,40.0,-100.00,NW,310,3.0,10.0,100,0.01,,,-99.99,0.000000,,2013-04-20 07:32:00,
2013-04-20 00:42:00,40.0,40.0,-100.00,NW,310,3.0,10.0,100,0.01,,,-99.99,0.000000,,2013-04-20 07:42:00,
2013-04-20 00:52:00,40.0,40.0,-100.00,NW,310,3.0,10.0,100,0.01,,,-99.99,0.000000,,2013-04-20 07:52:00,
2013-04-20 01:01:00,40.0,40.0,-100.00,NW,310,3.0,10.0,100,0.01,,,-99.99,0.000000,,2013-04-20 08:01:00,
2013-04-20 01:32:00,38.0,38.0,-100.00,West,265,2.0,13.0,100,0.01,,,0.79,0.000000,,2013-04-20 08:32:00,
2013-04-20 01:42:00,38.0,38.0,-100.00,West,265,2.0,13.0,100,0.01,,,0.79,0.000000,,2013-04-20 08:42:00,
2013-04-20 01:52:00,38.0,38.0,-100.00,West,265,2.0,13.0,100,0.01,,,0.79,0.000000,,2013-04-20 08:52:00,
2013-04-20 02:01:00,38.0,38.0,-100.00,West,265,2.0,13.0,100,0.01,,,0.79,0.000000,,2013-04-20 09:01:00,
2013-04-20 02:33:00,38.0,38.0,-100.00,SSW,195,2.0,14.0,100,0.05,,,0.81,0.000000,,2013-04-20 09:33:00,
2013-04-20 02:43:00,38.0,38.0,-100.00,SSW,195,2.0,14.0,100,0.05,,,0.81,0.000000,,2013-04-20 09:43:00,
2013-04-20 02:53:00,38.0,38.0,-100.00,SSW,195,2.0,14.0,100,0.05,,,0.81,0.000000,,2013-04-20 09:53:00,
2013-04-20 03:02:00,38.0,38.0,-100.00,SSW,195,2.0,14.0,100,0.05,,,0.81,0.000000,,2013-04-20 10:02:00,
2013-04-20 03:33:00,37.0,37.0,-100.00,East,87,2.0,9.0,100,0.01,,,0.77,0.000000,,2013-04-20 10:33:00,
2013-04-20 03:42:00,37.0,37.0,-100.00,East,87,2.0,9.0,100,0.01,,,0.77,0.000000,,2013-04-20 10:42:00,
2013-04-20 03:53:00,37.0,37.0,-100.00,East,87,2.0,9.0,100,0.01,,,0.77,0.000000,,2013-04-20 10:53:00,
2013-04-20 04:02:00,37.0,37.0,-100.00,East,87,2.0,9.0,100,0.01,,,0.77,0.000000,,2013-04-20 11:02:00,
2013-04-20 04:32:00,37.0,37.0,-100.00,NNE,33,2.0,13.0,100,0.03,,,0.75,0.000000,,2013-04-20 11:32:00,
2013-04-20 04:42:00,37.0,37.0,-100.00,NNE,33,2.0,13.0,100,0.03,,,0.75,0.000000,,2013-04-20 11:42:00,
2013-04-20 04:52:00,37.0,37.0,-100.00,NNE,33,2.0,13.0,100,0.03,,,0.75,0.000000,,2013-04-20 11:52:00,
2013-04-20 05:02:00,37.0,37.0,-100.00,NNE,33,2.0,13.0,100,0.03,,,0.75,0.000000,,2013-04-20 12:02:00,
2013-04-20 05:32:00,38.0,38.0,-100.00,East,98,2.0,9.0,100,0.02,,,0.70,0.000000,,2013-04-20 12:32:00,
2013-04-20 05:42:00,38.0,38.0,-100.00,East,98,2.0,9.0,100,0.02,,,0.70,0.000000,,2013-04-20 12:42:00,
2013-04-20 05:52:00,38.0,38.0,-100.00,East,98,2.0,9.0,100,0.02,,,0.70,0.000000,,2013-04-20 12:52:00,
2013-04-20 06:02:00,38.0,38.0,-100.00,East,98,2.0,9.0,100,0.02,,,0.70,0.000000,,2013-04-20 13:02:00,
2013-04-20 06:32:00,36.0,36.0,-100.00,SE,126,1.0,7.0,100,0.01,,,0.68,0.000000,,2013-04-20 13:32:00,
2013-04-20 06:42:00,36.0,36.0,-100.00,SE,126,1.0,7.0,100,0.01,,,0.68,0.000000,,2013-04-20 13:42:00,
2013-04-20 06:52:00,36.0,36.0,-100.00,SE,126,1.0,7.0,100,0.01,,,0.68,0.000000,,2013-04-20 13:52:00,
2013-04-20 07:02:00,36.0,36.0,-100.00,SE,126,1.0,7.0,100,0.01,,,0.68,0.000000,,2013-04-20 14:02:00,
2013-04-20 07:32:00,36.0,36.0,-100.00,ENE,63,2.0,6.0,100,0.00,,,0.64,7.000000,,2013-04-20 14:32:00,
2013-04-20 07:42:00,36.0,36.0,-100.00,ENE,63,2.0,6.0,100,0.00,,,0.64,7.000000,,2013-04-20 14:42:00,
2013-04-20 07:52:00,36.0,36.0,-100.00,ENE,63,2.0,6.0,100,0.00,,,0.64,7.000000,,2013-04-20 14:52:00,
2013-04-20 08:01:00,36.0,36.0,-100.00,ENE,63,2.0,6.0,100,0.00,,,0.64,7.000000,,2013-04-20 15:01:00,
2013-04-20 08:34:00,36.0,36.0,-100.00,WSW,237,2.0,9.0,100,0.00,,,0.58,29.000000,,2013-04-20 15:34:00,
2013-04-20 08:43:00,36.0,36.0,-100.00,WSW,237,2.0,9.0,100,0.00,,,0.58,29.000000,,2013-04-20 15:43:00,
2013-04-20 08:53:00,36.0,36.0,-100.00,WSW,237,2.0,9.0,100,0.00,,,0.58,29.000000,,2013-04-20 15:53:00,
2013-04-20 09:03:00,36.0,36.0,-100.00,WSW,237,2.0,9.0,100,0.00,,,0.58,29.000000,,2013-04-20 16:03:00,
2013-04-20 09:33:00,38.0,38.0,-100.00,East,86,2.0,7.0,100,0.00,,,0.52,52.000000,,2013-04-20 16:33:00,
2013-04-20 09:42:00,38.0,38.0,-100.00,East,86,2.0,7.0,100,0.00,,,0.52,52.000000,,2013-04-20 16:42:00,
2013-04-20 09:53:00,38.0,38.0,-100.00,East,86,2.0,7.0,100,0.00,,,0.52,52.000000,,2013-04-20 16:53:00,
2013-04-20 10:02:00,38.0,38.0,-100.00,East,86,2.0,7.0,100,0.00,,,0.52,52.000000,,2013-04-20 17:02:00,
2013-04-20 10:33:00,39.0,39.0,-100.00,NE,39,2.0,7.0,100,0.01,,,0.48,92.000000,,2013-04-20 17:33:00,
2013-04-20 10:42:00,39.0,39.0,-100.00,NE,39,2.0,7.0,100,0.01,,,0.48,92.000000,,2013-04-20 17:42:00,
2013-04-20 10:52:00,39.0,39.0,-100.00,NE,39,2.0,7.0,100,0.01,,,0.48,92.000000,,2013-04-20 17:52:00,
2013-04-20 11:02:00,39.0,39.0,-100.00,NE,39,2.0,7.0,100,0.01,,,0.48,92.000000,,2013-04-20 18:02:00,
2013-04-20 11:32:00,40.0,40.0,-100.00,WNW,285,2.0,7.0,100,0.01,,,0.43,216.000000,,2013-04-20 18:32:00,
2013-04-20 11:42:00,40.0,40.0,-100.00,WNW,285,2.0,7.0,100,0.01,,,0.43,216.000000,,2013-04-20 18:42:00,
2013-04-20 11:52:00,40.0,40.0,-100.00,WNW,285,2.0,7.0,100,0.01,,,0.43,216.000000,,2013-04-20 18:52:00,
2013-04-20 12:01:00,40.0,40.0,-100.00,WNW,285,2.0,7.0,100,0.01,,,0.43,216.000000,,2013-04-20 19:01:00,
2013-04-20 12:32:00,43.0,42.0,-100.00,West,273,2.0,8.0,98,0.01,,,0.40,321.000000,,2013-04-20 19:32:00,
2013-04-20 12:42:00,43.0,42.0,-100.00,West,273,2.0,8.0,98,0.01,,,0.40,321.000000,,2013-04-20 19:42:00,
2013-04-20 12:52:00,43.0,42.0,-100.00,West,273,2.0,8.0,98,0.01,,,0.40,321.000000,,2013-04-20 19:52:00,
2013-04-20 13:02:00,43.0,42.0,-100.00,West,273,2.0,8.0,98,0.01,,,0.40,321.000000,,2013-04-20 20:02:00,
2013-04-20 13:32:00,45.0,43.0,-100.00,SSE,154,2.0,8.0,94,0.00,,,0.38,382.000000,,2013-04-20 20:32:00,
2013-04-20 13:42:00,45.0,43.0,-100.00,SSE,154,2.0,8.0,94,0.00,,,0.38,382.000000,,2013-04-20 20:42:00,
2013-04-20 13:52:00,45.0,43.0,-100.00,SSE,154,2.0,8.0,94,0.00,,,0.38,382.000000,,2013-04-20 20:52:00,
2013-04-20 14:01:00,45.0,43.0,-100.00,SSE,154,2.0,8.0,94,0.00,,,0.38,382.000000,,2013-04-20 21:01:00,
2013-04-20 14:33:00,45.0,42.0,-100.00,ENE,65,2.0,8.0,90,0.00,,,-99.99,388.000000,,2013-04-20 21:33:00,
2013-04-20 14:43:00,45.0,42.0,-100.00,ENE,65,2.0,8.0,90,0.00,,,-99.99,388.000000,,2013-04-20 21:43:00,
2013-04-20 14:53:00,45.0,42.0,-100.00,ENE,65,2.0,8.0,90,0.00,,,-99.99,388.000000,,2013-04-20 21:53:00,
2013-04-20 15:02:00,45.0,42.0,-100.00,ENE,65,2.0,8.0,90,0.00,,,-99.99,388.000000,,2013-04-20 22:02:00,
2013-04-20 15:33:00,47.0,43.0,-100.00,WNW,292,2.0,8.0,86,0.00,,,0.34,359.000000,,2013-04-20 22:33:00,
2013-04-20 15:42:00,47.0,43.0,-100.00,WNW,292,2.0,8.0,86,0.00,,,0.34,359.000000,,2013-04-20 22:42:00,
2013-04-20 15:52:00,47.0,43.0,-100.00,WNW,292,2.0,8.0,86,0.00,,,0.34,359.000000,,2013-04-20 22:52:00,
2013-04-20 16:02:00,47.0,43.0,-100.00,WNW,292,2.0,8.0,86,0.00,,,0.34,359.000000,,2013-04-20 23:02:00,
2013-04-20 16:32:00,47.0,42.0,-100.00,NE,48,2.0,9.0,84,0.00,,,0.32,334.000000,,2013-04-20 23:32:00,
2013-04-20 16:42:00,47.0,42.0,-100.00,NE,48,2.0,9.0,84,0.00,,,0.32,334.000000,,2013-04-20 23:42:00,
2013-04-20 16:52:00,47.0,42.0,-100.00,NE,48,2.0,9.0,84,0.00,,,0.32,334.000000,,2013-04-20 23:52:00,
2013-04-20 17:01:00,47.0,42.0,-100.00,NE,48,2.0,9.0,84,0.00,,,0.32,334.000000,,2013-04-21 00:01:00,
2013-04-20 18:32:00,45.0,43.0,-100.00,North,9,2.0,9.0,92,-99.99,,,0.24,224.000000,,2013-04-21 01:32:00,
2013-04-20 18:42:00,45.0,43.0,-100.00,North,9,2.0,9.0,92,-99.99,,,0.24,224.000000,,2013-04-21 01:42:00,
2013-04-20 18:52:00,45.0,43.0,-100.00,North,9,2.0,9.0,92,-99.99,,,0.24,224.000000,,2013-04-21 01:52:00,
2013-04-20 19:01:00,45.0,43.0,-100.00,North,9,2.0,9.0,92,-99.99,,,0.24,224.000000,,2013-04-21 02:01:00,
2013-04-20 19:32:00,42.0,41.0,-100.00,WNW,297,2.0,9.0,97,0.00,,,0.20,93.000000,,2013-04-21 02:32:00,
2013-04-20 19:42:00,42.0,41.0,-100.00,WNW,297,2.0,9.0,97,0.00,,,0.20,93.000000,,2013-04-21 02:42:00,
2013-04-20 19:52:00,42.0,41.0,-100.00,WNW,297,2.0,9.0,97,0.00,,,0.20,93.000000,,2013-04-21 02:52:00,
2013-04-20 20:01:00,42.0,41.0,-100.00,WNW,297,2.0,9.0,97,0.00,,,0.20,93.000000,,2013-04-21 03:01:00,
2013-04-20 20:33:00,39.0,39.0,-100.00,NNW,327,2.0,7.0,100,0.01,,,0.19,14.000000,,2013-04-21 03:33:00,
2013-04-20 20:42:00,39.0,39.0,-100.00,NNW,327,2.0,7.0,100,0.01,,,0.19,14.000000,,2013-04-21 03:42:00,
2013-04-20 20:52:00,39.0,39.0,-100.00,NNW,327,2.0,7.0,100,0.01,,,0.19,14.000000,,2013-04-21 03:52:00,
2013-04-20 21:02:00,39.0,39.0,-100.00,NNW,327,2.0,7.0,100,0.01,,,0.19,14.000000,,2013-04-21 04:02:00,
2013-04-20 21:33:00,38.0,38.0,-100.00,SE,129,2.0,6.0,100,0.01,,,0.20,0.000000,,2013-04-21 04:33:00,
2013-04-20 21:42:00,38.0,38.0,-100.00,SE,129,2.0,6.0,100,0.01,,,0.20,0.000000,,2013-04-21 04:42:00,
2013-04-20 21:53:00,38.0,38.0,-100.00,SE,129,2.0,6.0,100,0.01,,,0.20,0.000000,,2013-04-21 04:53:00,
2013-04-20 22:02:00,38.0,38.0,-100.00,SE,129,2.0,6.0,100,0.01,,,0.20,0.000000,,2013-04-21 05:02:00,
2013-04-20 22:32:00,37.0,37.0,-100.00,WNW,290,2.0,10.0,100,0.00,,,0.20,0.000000,,2013-04-21 05:32:00,
2013-04-20 22:43:00,37.0,37.0,-100.00,WNW,290,2.0,10.0,100,0.00,,,0.20,0.000000,,2013-04-21 05:43:00,
2013-04-20 22:52:00,37.0,37.0,-100.00,WNW,290,2.0,10.0,100,0.00,,,0.20,0.000000,,2013-04-21 05:52:00,
2013-04-20 23:01:00,37.0,37.0,-100.00,WNW,290,2.0,10.0,100,0.00,,,0.20,0.000000,,2013-04-21 06:01:00,
2013-04-20 23:32:00,38.0,38.0,-100.00,East,81,2.0,7.0,100,0.01,,,0.20,0.000000,,2013-04-21 06:32:00,
2013-04-20 23:42:00,38.0,38.0,-100.00,East,81,2.0,7.0,100,0.01,,,0.20,0.000000,,2013-04-21 06:42:00,
2013-04-20 23:52:00,38.0,38.0,-100.00,East,81,2.0,7.0,100,0.01,,,0.20,0.000000,,2013-04-21 06:52:00,